Time;durP1;ratioP1;P1;durP2;ratioP2;P2;SDS_P1;SDS_P2;PMS_P1;PMS_P2;Temp;Humidity;BMP_temperature;BMP_pressure;BME280_temperature;BME280_humidity;BME280_pressure;Samples;Min_cycle;Max_cycle;Signal;HPM_P1;HPM_P2
2022/10/11 00:00:41;;;;;;;7.03;4.87;;;;;;;7.92;100.00;101171.63;5053877;28;20212;-70
2022/10/11 00:03:08;;;;;;;4.67;4.20;;;;;;;7.90;100.00;101174.22;5055798;28;20573;-70
2022/10/11 00:05:35;;;;;;;6.60;4.30;;;;;;;8.02;100.00;101185.41;5056048;28;20238;-70
2022/10/11 00:08:04;;;;;;;6.33;4.57;;;;;;;8.06;100.00;101179.34;5058334;28;20229;-70
2022/10/11 00:10:31;;;;;;;10.10;4.63;;;;;;;8.18;100.00;101189.63;5053976;28;20195;-71
2022/10/11 00:12:57;;;;;;;8.43;4.63;;;;;;;8.25;100.00;101191.31;5053759;28;20904;-70
2022/10/11 00:15:24;;;;;;;9.27;4.73;;;;;;;8.31;100.00;101193.84;5051898;28;20205;-71
2022/10/11 00:17:50;;;;;;;6.27;3.90;;;;;;;8.36;100.00;101200.75;5050729;28;20222;-70
2022/10/11 00:20:17;;;;;;;10.13;4.97;;;;;;;8.41;100.00;101192.06;5055435;28;20206;-71
2022/10/11 00:22:44;;;;;;;7.03;4.73;;;;;;;8.44;100.00;101199.88;5053990;28;20203;-69
2022/10/11 00:25:12;;;;;;;8.03;4.27;;;;;;;8.44;100.00;101198.97;5052393;28;20208;-69
2022/10/11 00:27:39;;;;;;;5.47;4.00;;;;;;;8.45;100.00;101193.78;5054382;28;20218;-70
2022/10/11 00:30:07;;;;;;;7.70;4.97;;;;;;;8.43;100.00;101212.88;5043223;28;20207;-69
2022/10/11 00:32:34;;;;;;;6.40;4.73;;;;;;;8.44;100.00;101219.78;5062740;28;20209;-70
2022/10/11 00:35:05;;;;;;;6.17;4.67;;;;;;;8.43;100.00;101224.13;5055040;28;20202;-70
2022/10/11 00:37:32;;;;;;;6.17;4.40;;;;;;;8.45;100.00;101222.34;5058576;28;20722;-70
2022/10/11 00:39:58;;;;;;;8.60;4.47;;;;;;;8.45;100.00;101221.50;5056108;28;20273;-69
2022/10/11 00:42:26;;;;;;;7.97;4.47;;;;;;;8.42;100.00;101222.38;5051498;28;20421;-70
2022/10/11 00:45:31;;;;;;;8.30;3.93;;;;;;;8.38;100.00;101227.59;5052011;28;20209;-71
2022/10/11 00:48:02;;;;;;;7.47;4.37;;;;;;;8.41;100.00;101231.03;5031870;28;20593;-70
2022/10/11 00:50:32;;;;;;;5.57;4.17;;;;;;;8.39;100.00;101230.19;5051543;28;20225;-70
2022/10/11 00:53:02;;;;;;;9.13;4.53;;;;;;;8.42;100.00;101234.47;5052348;28;20691;-70
2022/10/11 00:55:32;;;;;;;11.63;5.27;;;;;;;8.46;100.00;101239.69;5055755;28;20203;-70
2022/10/11 00:58:00;;;;;;;8.40;4.80;;;;;;;8.53;100.00;101241.38;5074391;22;20573;-71
2022/10/11 01:00:26;;;;;;;6.73;4.10;;;;;;;8.57;100.00;101244.81;5082435;28;20539;-71
2022/10/11 01:02:53;;;;;;;11.17;4.43;;;;;;;8.62;100.00;101240.44;5082202;28;20201;-71
2022/10/11 01:05:20;;;;;;;7.87;4.83;;;;;;;8.58;100.00;101248.25;5081451;28;20205;-71
2022/10/11 01:07:47;;;;;;;7.60;4.50;;;;;;;8.55;100.00;101246.56;5082114;28;20631;-72
2022/10/11 01:10:14;;;;;;;7.83;4.47;;;;;;;8.48;100.00;101252.69;5076356;28;20632;-71
2022/10/11 01:12:53;;;;;;;8.23;4.70;;;;;;;8.38;100.00;101266.56;5084240;28;20650;-72
2022/10/11 01:15:28;;;;;;;5.47;4.23;;;;;;;8.28;100.00;101268.34;5080663;28;20644;-71
2022/10/11 01:18:02;;;;;;;5.47;4.20;;;;;;;8.20;100.00;101270.16;5076817;28;20601;-71
2022/10/11 01:20:52;;;;;;;9.73;4.40;;;;;;;8.18;100.00;101274.47;5081780;28;20292;-71
2022/10/11 01:23:44;;;;;;;5.63;4.20;;;;;;;8.18;100.00;101275.34;5077646;28;20280;-71
2022/10/11 01:26:35;;;;;;;5.20;4.30;;;;;;;8.12;100.00;101278.81;5079102;28;20198;-71
2022/10/11 01:29:12;;;;;;;5.73;3.83;;;;;;;8.10;100.00;101275.38;5083115;28;20228;-71
2022/10/11 01:31:47;;;;;;;7.00;3.87;;;;;;;8.15;100.00;101288.34;5079802;28;20208;-71
2022/10/11 01:34:21;;;;;;;6.77;4.47;;;;;;;8.22;100.00;101286.59;5066910;28;20197;-71
2022/10/11 01:36:52;;;;;;;6.27;4.23;;;;;;;8.17;100.00;101301.34;5063188;28;20205;-71
2022/10/11 01:39:23;;;;;;;6.93;4.53;;;;;;;8.20;100.00;101296.13;5081910;28;20217;-72
2022/10/11 01:41:53;;;;;;;6.87;4.13;;;;;;;8.25;100.00;101304.72;5078177;28;20205;-71
2022/10/11 01:44:20;;;;;;;8.73;4.57;;;;;;;8.23;100.00;101303.88;5083268;28;20220;-71
2022/10/11 01:46:48;;;;;;;10.53;4.40;;;;;;;8.30;100.00;101313.38;5076091;28;20206;-71
2022/10/11 01:49:14;;;;;;;7.57;3.70;;;;;;;8.30;100.00;101315.97;5061374;28;20237;-71
2022/10/11 01:51:43;;;;;;;8.03;3.33;;;;;;;8.28;100.00;101321.16;5082647;28;20590;-71
2022/10/11 01:54:22;;;;;;;5.30;3.40;;;;;;;8.28;100.00;101321.16;5081590;28;20205;-72
2022/10/11 01:57:13;;;;;;;6.47;3.13;;;;;;;8.30;100.00;101326.34;5085632;28;20202;-71
2022/10/11 01:59:53;;;;;;;3.53;2.97;;;;;;;8.36;100.00;101333.28;5084587;28;20217;-70
2022/10/11 02:02:39;;;;;;;7.90;3.10;;;;;;;8.43;100.00;101338.47;5068728;28;20209;-71
2022/10/11 02:05:13;;;;;;;3.27;2.70;;;;;;;8.37;100.00;101350.56;5078301;28;20481;-70
2022/10/11 02:07:44;;;;;;;4.30;2.87;;;;;;;8.34;100.00;101346.28;5085755;28;20580;-70
2022/10/11 02:10:16;;;;;;;3.83;2.67;;;;;;;8.26;100.00;101351.50;5082737;28;20315;-71
2022/10/11 02:12:48;;;;;;;5.53;2.70;;;;;;;8.18;100.00;101352.41;5082933;28;20198;-72
2022/10/11 02:15:17;;;;;;;4.60;2.53;;;;;;;8.09;100.00;101351.59;5079978;28;20198;-70
2022/10/11 02:17:49;;;;;;;5.43;2.70;;;;;;;8.05;100.00;101357.66;5085546;28;20201;-71
2022/10/11 02:20:19;;;;;;;3.13;2.63;;;;;;;8.02;100.00;101365.47;5090322;22;20324;-72
2022/10/11 02:22:49;;;;;;;3.77;2.50;;;;;;;7.94;100.00;101369.81;5066460;28;20216;-73
2022/10/11 02:25:22;;;;;;;5.33;2.13;;;;;;;7.88;100.00;101370.72;5065441;28;20206;-76
2022/10/11 02:27:52;;;;;;;3.83;2.63;;;;;;;7.81;100.00;101371.59;5072795;28;20204;-73
2022/10/11 02:30:19;;;;;;;5.37;2.80;;;;;;;7.72;100.00;101375.09;5071271;28;20226;-73
2022/10/11 02:32:48;;;;;;;5.07;2.80;;;;;;;7.62;100.00;101373.38;5070188;28;20201;-73
2022/10/11 02:35:15;;;;;;;4.27;2.10;;;;;;;7.56;100.00;101373.38;5069297;28;20208;-72
2022/10/11 02:37:53;;;;;;;7.93;2.70;;;;;;;7.54;100.00;101378.56;5064209;28;20682;-76
2022/10/11 02:40:22;;;;;;;6.17;2.20;;;;;;;7.53;100.00;101389.81;5069583;28;20760;-73
2022/10/11 02:42:53;;;;;;;3.13;2.20;;;;;;;7.51;100.00;101388.06;5065118;28;20201;-73
2022/10/11 02:45:24;;;;;;;3.83;2.30;;;;;;;7.53;100.00;101387.22;5067785;28;20295;-74
2022/10/11 02:47:53;;;;;;;5.60;1.47;;;;;;;7.47;100.00;101386.38;5062247;28;20199;-73
2022/10/11 02:50:21;;;;;;;3.57;2.10;;;;;;;7.37;100.00;101383.78;5073366;28;20223;-73
2022/10/11 02:52:47;;;;;;;4.23;1.90;;;;;;;7.37;100.00;101393.31;5066726;28;20658;-72
2022/10/11 02:55:14;;;;;;;3.13;1.67;;;;;;;7.30;100.00;101395.03;5068240;28;20204;-73
2022/10/11 02:57:40;;;;;;;2.50;1.70;;;;;;;7.28;100.00;101401.97;5068470;28;20211;-72
2022/10/11 03:00:07;;;;;;;4.37;1.67;;;;;;;7.19;100.00;101401.94;5064406;28;20217;-73
2022/10/11 03:02:34;;;;;;;4.73;1.77;;;;;;;7.09;100.00;101400.19;5067994;28;20204;-73
2022/10/11 03:05:02;;;;;;;3.40;1.90;;;;;;;6.96;100.00;101404.50;5068971;28;20566;-72
2022/10/11 03:07:28;;;;;;;4.60;1.93;;;;;;;6.85;100.00;101409.69;5069768;28;20548;-73
2022/10/11 03:09:55;;;;;;;6.37;1.40;;;;;;;6.76;100.00;101409.69;5064843;28;20553;-73
2022/10/11 03:12:21;;;;;;;5.53;1.60;;;;;;;6.70;100.00;101412.25;5067194;28;20201;-74
2022/10/11 03:14:48;;;;;;;2.60;1.70;;;;;;;6.61;100.00;101413.97;5063640;28;20237;-73
2022/10/11 03:17:14;;;;;;;5.63;1.80;;;;;;;6.53;100.00;101419.97;5060506;28;20699;-72
2022/10/11 03:19:41;;;;;;;2.03;1.63;;;;;;;6.48;100.00;101425.13;5069171;28;20210;-72
2022/10/11 03:22:09;;;;;;;3.33;1.30;;;;;;;6.39;100.00;101431.16;5065827;28;20199;-74
2022/10/11 03:24:35;;;;;;;2.70;1.73;;;;;;;6.30;100.00;101438.00;5065317;28;20555;-72
2022/10/11 03:27:02;;;;;;;4.73;1.60;;;;;;;6.27;100.00;101438.00;5065592;28;20199;-74
2022/10/11 03:29:28;;;;;;;3.27;1.43;;;;;;;6.19;100.00;101450.91;5067921;28;20233;-73
2022/10/11 03:31:54;;;;;;;1.83;1.50;;;;;;;6.18;100.00;101449.19;5062593;28;20198;-74
2022/10/11 03:34:21;;;;;;;3.60;1.70;;;;;;;6.05;100.00;101454.31;5060527;28;20215;-73
2022/10/11 03:36:47;;;;;;;5.80;1.73;;;;;;;6.03;100.00;101457.72;5067327;28;20205;-73
2022/10/11 03:39:15;;;;;;;1.47;1.37;;;;;;;5.86;100.00;101461.03;5062830;28;20703;-74
2022/10/11 03:41:41;;;;;;;2.20;1.40;;;;;;;5.84;100.00;101462.75;5060864;28;20227;-73
2022/10/11 03:44:08;;;;;;;2.60;1.53;;;;;;;5.80;100.00;101461.00;5067896;28;20209;-73
2022/10/11 03:46:34;;;;;;;3.87;1.50;;;;;;;5.73;100.00;101471.28;5065185;28;20210;-73
2022/10/11 03:49:00;;;;;;;5.43;1.73;;;;;;;5.68;100.00;101469.56;5064088;28;20222;-73
2022/10/11 03:51:27;;;;;;;4.07;1.40;;;;;;;5.65;100.00;101472.09;5069315;28;20210;-73
2022/10/11 03:53:53;;;;;;;2.73;1.60;;;;;;;5.64;100.00;101472.94;5065597;28;20277;-73
2022/10/11 03:56:21;;;;;;;1.77;1.40;;;;;;;5.56;100.00;101474.63;5058262;28;20672;-72
2022/10/11 03:58:48;;;;;;;3.07;1.40;;;;;;;5.52;100.00;101477.16;5067274;28;20273;-73
2022/10/11 04:01:14;;;;;;;6.27;1.47;;;;;;;5.47;100.00;101479.69;5066194;28;20202;-72
2022/10/11 04:03:41;;;;;;;2.70;1.47;;;;;;;5.45;100.00;101478.84;5064516;28;20269;-74
2022/10/11 04:06:07;;;;;;;4.30;1.67;;;;;;;5.42;100.00;101489.19;5069355;28;20214;-73
2022/10/11 04:08:34;;;;;;;2.20;1.40;;;;;;;5.40;100.00;101490.84;5061769;28;20205;-72
2022/10/11 04:11:00;;;;;;;2.83;1.47;;;;;;;5.38;100.00;101490.88;5084806;28;20696;-72
2022/10/11 04:13:28;;;;;;;2.53;1.93;;;;;;;5.24;100.00;101487.25;5067556;28;20674;-72
2022/10/11 04:15:55;;;;;;;17.63;9.40;;;;;;;5.15;100.00;101495.78;5067839;28;20201;-73
2022/10/11 04:18:21;;;;;;;17.90;7.40;;;;;;;5.10;100.00;101498.34;5066819;28;20289;-74
2022/10/11 04:20:47;;;;;;;12.70;6.90;;;;;;;4.95;100.00;101498.19;5067362;28;20309;-74
2022/10/11 04:23:14;;;;;;;11.10;5.60;;;;;;;5.04;100.00;101500.00;5069148;28;20213;-73
2022/10/11 04:25:40;;;;;;;13.00;5.97;;;;;;;5.04;100.00;101500.00;5066725;28;20207;-72
2022/10/11 04:28:08;;;;;;;9.37;5.63;;;;;;;4.98;100.00;101508.56;5069019;28;20281;-72
2022/10/11 04:30:35;;;;;;;7.27;4.60;;;;;;;4.89;100.00;101513.59;5069216;28;20226;-73
2022/10/11 04:33:03;;;;;;;8.87;4.80;;;;;;;4.86;100.00;101513.59;5069854;28;20600;-72
2022/10/11 04:35:30;;;;;;;7.97;3.57;;;;;;;4.85;100.00;101515.28;5064622;28;20243;-72
2022/10/11 04:37:56;;;;;;;4.87;2.67;;;;;;;4.89;100.00;101504.16;5069119;28;20277;-73
2022/10/11 04:40:23;;;;;;;3.27;2.33;;;;;;;4.96;100.00;101515.44;5062963;28;20214;-74
2022/10/11 04:42:52;;;;;;;5.43;2.63;;;;;;;4.93;100.00;101518.84;5071902;28;20190;-71
2022/10/11 04:45:18;;;;;;;4.13;2.70;;;;;;;4.81;100.00;101528.16;5072285;28;20235;-71
2022/10/11 04:47:46;;;;;;;2.80;2.20;;;;;;;4.87;100.00;101525.66;5072245;28;20198;-72
2022/10/11 04:50:13;;;;;;;4.87;2.63;;;;;;;4.74;100.00;101535.84;5072205;28;20217;-72
2022/10/11 04:52:39;;;;;;;4.00;1.80;;;;;;;4.62;100.00;101527.06;5070314;28;20590;-72
2022/10/11 04:55:06;;;;;;;2.77;1.77;;;;;;;4.52;100.00;101538.97;5070317;28;20206;-71
2022/10/11 04:57:33;;;;;;;3.43;1.90;;;;;;;4.53;100.00;101535.56;5072365;28;20206;-72
2022/10/11 04:59:59;;;;;;;3.90;2.00;;;;;;;4.48;100.00;101545.81;5069087;28;20215;-72
2022/10/11 05:02:26;;;;;;;4.30;2.00;;;;;;;4.40;100.00;101547.44;5069692;28;20322;-72
2022/10/11 05:04:54;;;;;;;2.13;1.30;;;;;;;4.42;100.00;101555.22;5057931;28;20199;-73
2022/10/11 05:07:20;;;;;;;3.00;1.30;;;;;;;4.36;100.00;101559.44;5069942;28;20281;-71
2022/10/11 05:09:47;;;;;;;1.90;1.40;;;;;;;4.43;100.00;101560.38;5061170;28;20215;-73
2022/10/11 05:12:13;;;;;;;2.37;1.47;;;;;;;4.46;100.00;101559.56;5064669;28;20615;-72
2022/10/11 05:14:40;;;;;;;1.90;1.50;;;;;;;4.42;100.00;101562.97;5060948;28;20203;-71
2022/10/11 05:17:09;;;;;;;2.13;1.63;;;;;;;4.43;100.00;101573.28;5060204;28;20245;-72
2022/10/11 05:19:35;;;;;;;4.93;1.53;;;;;;;4.36;100.00;101574.06;5068200;28;20725;-72
2022/10/11 05:22:04;;;;;;;3.23;1.40;;;;;;;4.36;100.00;101580.09;5063068;28;20272;-72
2022/10/11 05:24:30;;;;;;;2.93;1.90;;;;;;;4.29;100.00;101579.97;5067314;28;20202;-73
2022/10/11 05:26:56;;;;;;;2.63;1.50;;;;;;;4.32;100.00;101588.63;5069239;28;20195;-72
2022/10/11 05:29:23;;;;;;;2.57;1.77;;;;;;;4.25;100.00;101594.56;5072037;28;20225;-72
2022/10/11 05:31:49;;;;;;;3.37;1.93;;;;;;;4.28;100.00;101591.16;5067093;28;20199;-73
2022/10/11 05:34:15;;;;;;;1.93;1.50;;;;;;;4.21;100.00;101592.78;5072430;28;20195;-74
2022/10/11 05:36:44;;;;;;;2.90;1.43;;;;;;;4.16;100.00;101605.59;5068480;28;20206;-72
2022/10/11 05:39:12;;;;;;;1.60;1.37;;;;;;;4.28;100.00;101604.94;5072418;28;20231;-73
2022/10/11 05:41:39;;;;;;;2.20;1.33;;;;;;;4.28;100.00;101604.94;5070966;28;20647;-72
2022/10/11 05:44:07;;;;;;;2.83;1.70;;;;;;;4.21;100.00;101612.56;5071379;28;20538;-72
2022/10/11 05:46:33;;;;;;;1.43;1.30;;;;;;;4.08;100.00;101614.06;5071885;28;20383;-72
2022/10/11 05:49:00;;;;;;;2.83;1.70;;;;;;;4.09;100.00;101613.22;5072255;28;20198;-72
2022/10/11 05:51:26;;;;;;;2.53;1.50;;;;;;;4.07;100.00;101615.78;5072125;28;20217;-73
2022/10/11 05:53:52;;;;;;;2.80;1.87;;;;;;;4.15;100.00;101621.94;5072462;28;20197;-73
2022/10/11 05:56:23;;;;;;;2.77;1.70;;;;;;;4.09;100.00;101624.41;5072224;28;20198;-72
2022/10/11 05:58:49;;;;;;;2.57;1.73;;;;;;;4.08;100.00;101625.28;5070862;28;20191;-73
2022/10/11 06:01:17;;;;;;;2.50;1.67;;;;;;;4.10;100.00;101633.06;5072126;28;20224;-74
2022/10/11 06:03:44;;;;;;;3.93;2.20;;;;;;;4.27;100.00;101639.31;5071866;28;20663;-74
2022/10/11 06:06:11;;;;;;;5.63;2.20;;;;;;;4.28;100.00;101643.66;5066106;28;20206;-73
2022/10/11 06:08:37;;;;;;;2.70;2.30;;;;;;;4.39;100.00;101648.13;5063557;28;20563;-72
2022/10/11 06:11:10;;;;;;;3.27;2.33;;;;;;;4.45;100.00;101649.09;5060017;28;20219;-73
2022/10/11 06:13:38;;;;;;;3.60;2.43;;;;;;;4.46;100.00;101658.56;5068143;28;20214;-72
2022/10/11 06:16:05;;;;;;;3.73;3.00;;;;;;;4.54;100.00;101661.28;5063497;28;20207;-73
2022/10/11 06:18:31;;;;;;;7.03;3.37;;;;;;;4.57;100.00;101665.63;5070754;28;20688;-71
2022/10/11 06:20:58;;;;;;;5.77;2.90;;;;;;;4.58;100.00;101670.81;5071755;28;20211;-71
2022/10/11 06:23:25;;;;;;;8.20;2.70;;;;;;;4.63;100.00;101670.91;5065874;28;20202;-73
2022/10/11 06:25:56;;;;;;;5.40;3.13;;;;;;;4.69;100.00;101682.16;5068726;28;20254;-71
2022/10/11 06:28:23;;;;;;;3.83;2.67;;;;;;;4.70;100.00;101686.50;5062733;28;20230;-72
2022/10/11 06:30:52;;;;;;;9.63;3.77;;;;;;;4.72;100.00;101692.56;5072072;28;20250;-72
2022/10/11 06:33:19;;;;;;;6.10;2.83;;;;;;;4.77;100.00;101691.75;5060366;28;20222;-72
2022/10/11 06:35:46;;;;;;;5.20;1.93;;;;;;;4.83;100.00;101697.00;5069467;28;20214;-72
2022/10/11 06:38:12;;;;;;;4.13;2.27;;;;;;;4.91;100.00;101688.53;5062875;28;20547;-72
2022/10/11 06:40:39;;;;;;;5.73;2.67;;;;;;;4.97;100.00;101697.22;5061882;28;20207;-72
2022/10/11 06:43:05;;;;;;;2.87;2.07;;;;;;;5.00;100.00;101702.44;5071633;28;20206;-72
2022/10/11 06:45:31;;;;;;;7.03;2.00;;;;;;;5.07;100.00;101702.53;5071291;28;20614;-71
2022/10/11 06:48:00;;;;;;;3.47;2.27;;;;;;;5.13;100.00;101706.91;5071597;28;20194;-71
2022/10/11 06:50:27;;;;;;;5.57;2.33;;;;;;;5.22;100.00;101707.03;5068129;28;20290;-72
2022/10/11 06:52:53;;;;;;;6.50;2.10;;;;;;;5.29;100.00;101708.88;5056763;28;20289;-72
2022/10/11 06:55:19;;;;;;;5.50;2.30;;;;;;;5.41;100.00;101708.13;5059352;28;20719;-74
2022/10/11 06:57:46;;;;;;;6.00;2.00;;;;;;;5.56;100.00;101717.81;5065674;28;20202;-75
2022/10/11 07:00:13;;;;;;;11.30;2.67;;;;;;;5.66;100.00;101724.84;5070605;28;20214;-72
2022/10/11 07:02:40;;;;;;;8.53;2.53;;;;;;;5.75;100.00;101725.78;5066591;28;20290;-73
2022/10/11 07:05:09;;;;;;;7.03;2.70;;;;;;;5.86;100.00;101726.78;5070743;28;20252;-72
2022/10/11 07:07:35;;;;;;;4.63;2.87;;;;;;;6.06;100.00;101737.38;5070691;28;20449;-73
2022/10/11 07:10:02;;;;;;;4.87;2.60;;;;;;;6.21;100.00;101732.34;5070281;28;20223;-72
2022/10/11 07:12:29;;;;;;;6.57;2.53;;;;;;;6.34;100.00;101738.50;5070563;28;20194;-72
2022/10/11 07:14:55;;;;;;;3.87;2.70;;;;;;;6.45;100.00;101736.00;5067087;28;20207;-73
2022/10/11 07:17:21;;;;;;;6.33;3.00;;;;;;;6.55;100.00;101747.34;5070180;28;20198;-73
2022/10/11 07:19:48;;;;;;;6.00;3.00;;;;;;;6.69;100.00;101742.25;5067710;28;20226;-72
2022/10/11 07:22:15;;;;;;;4.47;2.43;;;;;;;6.78;100.00;101742.31;5050386;28;20199;-72
2022/10/11 07:24:42;;;;;;;4.13;2.73;;;;;;;6.84;100.00;101755.31;5046396;28;20203;-71
2022/10/11 07:27:08;;;;;;;5.43;2.53;;;;;;;7.06;100.00;101750.31;5030522;28;20625;-72
2022/10/11 07:29:34;;;;;;;11.70;3.17;;;;;;;7.20;100.00;101757.28;5034380;28;20308;-74
2022/10/11 07:32:01;;;;;;;3.00;2.60;;;;;;;7.28;100.00;101751.28;5044432;28;20244;-73
2022/10/11 07:34:27;;;;;;;9.80;3.37;;;;;;;7.46;100.00;101760.88;5041097;28;20215;-72
2022/10/11 07:36:54;;;;;;;9.73;3.37;;;;;;;7.59;100.00;101770.47;5043711;28;20200;-73
2022/10/11 07:39:21;;;;;;;7.43;3.07;;;;;;;7.68;100.00;101765.31;5046244;28;20581;-72
2022/10/11 07:41:48;;;;;;;8.13;3.40;;;;;;;7.80;100.00;101764.50;5048902;28;20693;-72
2022/10/11 07:44:14;;;;;;;5.33;2.83;;;;;;;7.92;100.00;101763.69;5048648;28;21005;-70
2022/10/11 07:46:40;;;;;;;9.23;3.43;;;;;;;8.02;100.00;101767.16;5045414;28;20665;-71
2022/10/11 07:49:07;;;;;;;7.13;3.10;;;;;;;8.08;100.00;101760.25;5031887;28;20299;-72
2022/10/11 07:51:33;;;;;;;11.77;3.20;;;;;;;8.21;100.00;101765.47;5042621;28;20706;-74
2022/10/11 07:54:00;;;;;;;11.87;3.23;;;;;;;8.27;100.00;101763.75;5043945;28;20296;-72
2022/10/11 07:56:30;;;;;;;7.07;3.20;;;;;;;8.38;100.00;101770.69;5025985;28;20205;-72
2022/10/11 07:59:00;;;;;;;9.80;3.60;;;;;;;8.43;100.00;101769.00;5029569;28;20203;-73
2022/10/11 08:01:28;;;;;;;11.30;3.23;;;;;;;8.55;100.00;101762.94;5045261;28;20701;-72
2022/10/11 08:03:56;;;;;;;7.63;3.23;;;;;;;8.74;100.00;101771.59;5040375;28;20223;-72
2022/10/11 08:06:26;;;;;;;9.07;3.93;;;;;;;8.82;100.00;101770.75;5049624;28;20694;-73
2022/10/11 08:08:52;;;;;;;10.60;3.13;;;;;;;8.92;100.00;101766.41;5046534;28;20198;-74
2022/10/11 08:11:20;;;;;;;7.87;3.07;;;;;;;9.01;100.00;101755.97;5042641;28;20205;-73
2022/10/11 08:13:48;;;;;;;16.00;3.40;;;;;;;9.10;100.00;101770.72;5043330;28;20191;-75
2022/10/11 08:16:14;;;;;;;9.70;3.17;;;;;;;9.18;100.00;101761.16;5048586;28;20202;-73
2022/10/11 08:18:41;;;;;;;16.37;3.10;;;;;;;9.27;100.00;101768.09;5044940;28;20199;-74
2022/10/11 08:21:08;;;;;;;15.53;3.63;;;;;;;9.32;100.00;101763.72;5087851;22;20221;-75
2022/10/11 08:23:34;;;;;;;9.27;3.50;;;;;;;9.35;100.00;101771.50;5097414;28;20201;-74
2022/10/11 08:26:00;;;;;;;14.13;3.80;;;;;;;9.41;100.00;101775.81;5092561;28;20201;-74
2022/10/11 08:28:27;;;;;;;9.17;2.73;;;;;;;9.47;100.00;101774.06;5090770;28;20232;-75
2022/10/11 08:30:55;;;;;;;10.20;3.23;;;;;;;9.51;100.00;101774.06;5088385;28;20217;-75
2022/10/11 08:33:24;;;;;;;12.20;3.50;;;;;;;9.61;100.00;101781.00;5099911;28;20201;-75
2022/10/11 08:35:52;;;;;;;10.73;3.60;;;;;;;9.71;100.00;101771.38;5060766;28;20211;-74
2022/10/11 08:38:19;;;;;;;5.73;3.37;;;;;;;9.83;100.00;101780.03;5060952;28;20198;-74
2022/10/11 08:40:47;;;;;;;20.40;4.03;;;;;;;9.90;100.00;101777.38;5059361;28;20255;-74
2022/10/11 08:43:26;;;;;;;15.63;3.27;;;;;;;9.90;100.00;101780.84;5060937;28;20206;-74
2022/10/11 08:45:57;;;;;;;17.30;4.30;;;;;;;9.98;100.00;101780.81;5055800;28;20207;-75
2022/10/11 08:48:32;;;;;;;12.83;3.57;;;;;;;10.07;100.00;101780.78;5061142;28;20557;-74
2022/10/11 08:50:59;;;;;;;10.30;3.43;;;;;;;10.11;100.00;101779.88;5057695;28;20698;-74
2022/10/11 08:53:36;;;;;;;8.10;3.50;;;;;;;10.15;100.00;101783.31;5058074;28;20192;-74
2022/10/11 08:56:03;;;;;;;14.27;2.80;;;;;;;10.17;100.00;101777.25;5061382;28;20211;-75
2022/10/11 08:58:40;;;;;;;7.20;3.43;;;;;;;10.24;100.00;101783.28;5058631;28;20207;-74
2022/10/11 09:01:15;;;;;;;16.40;4.27;;;;;;;10.35;100.00;101786.72;5057760;28;20219;-74
2022/10/11 09:03:44;;;;;;;10.53;3.50;;;;;;;10.41;100.00;101778.84;5068638;28;20226;-75
2022/10/11 09:06:19;;;;;;;13.70;3.57;;;;;;;10.48;100.00;101787.47;5062275;28;20197;-75
2022/10/11 09:09:07;;;;;;;12.53;3.37;;;;;;;10.53;100.00;101788.31;5065945;28;20190;-75
2022/10/11 09:11:45;;;;;;;6.27;2.77;;;;;;;10.64;100.00;101796.09;5058230;28;20582;-75
2022/10/11 09:14:39;;;;;;;8.97;2.80;;;;;;;10.71;100.00;101792.53;5061040;28;20757;-75
2022/10/11 09:17:17;;;;;;;9.20;2.83;;;;;;;10.84;100.00;101797.66;5060169;28;20608;-75
2022/10/11 09:20:02;;;;;;;7.57;2.50;;;;;;;10.93;100.00;101801.03;5062866;28;20209;-74
2022/10/11 09:22:41;;;;;;;6.23;2.17;;;;;;;11.07;100.00;101797.44;5061016;28;20188;-75
2022/10/11 09:25:21;;;;;;;11.07;3.10;;;;;;;11.14;100.00;101799.13;5058586;28;20221;-75
2022/10/11 09:27:59;;;;;;;8.70;2.23;;;;;;;11.22;100.00;101791.19;5055728;28;20209;-74
2022/10/11 09:30:25;;;;;;;12.07;2.43;;;;;;;11.26;100.00;101795.53;5061054;28;20204;-74
2022/10/11 09:33:03;;;;;;;6.30;2.33;;;;;;;11.35;100.00;101796.28;5062069;28;20201;-75
2022/10/11 09:35:36;;;;;;;9.20;2.50;;;;;;;11.39;100.00;101788.41;5061276;28;20483;-75
2022/10/11 09:38:07;;;;;;;7.77;2.17;;;;;;;11.39;100.00;101797.09;5061498;28;20536;-74
2022/10/11 09:40:45;;;;;;;9.30;1.90;;;;;;;11.48;100.00;101791.78;5057802;28;20407;-74
2022/10/11 09:43:12;;;;;;;7.07;1.80;;;;;;;11.52;100.00;101796.09;5059763;28;20197;-74
2022/10/11 09:45:43;;;;;;;4.87;2.03;;;;;;;11.69;100.00;101798.50;5062870;28;20663;-74
2022/10/11 09:48:15;;;;;;;6.87;1.77;;;;;;;11.82;100.00;101794.00;5060508;28;20215;-74
2022/10/11 09:50:42;;;;;;;6.90;1.33;;;;;;;11.83;100.00;101806.16;5055404;28;20216;-74
2022/10/11 09:53:09;;;;;;;5.40;1.13;;;;;;;11.90;100.00;101805.22;5063378;28;20194;-75
2022/10/11 09:55:38;;;;;;;3.87;1.00;;;;;;;11.96;100.00;101811.28;5063932;28;20302;-75
2022/10/11 09:58:23;;;;;;;5.27;1.40;;;;;;;12.00;100.00;101811.22;5059342;28;20204;-74
2022/10/11 10:00:57;;;;;;;4.07;1.00;;;;;;;12.13;100.00;101818.00;5055698;28;20670;-74
2022/10/11 10:03:28;;;;;;;4.53;1.10;;;;;;;12.23;100.00;101821.38;5058497;28;20216;-74
2022/10/11 10:06:06;;;;;;;5.27;1.30;;;;;;;12.32;100.00;101822.97;5052835;28;20284;-75
2022/10/11 10:08:33;;;;;;;2.57;0.90;;;;;;;12.32;100.00;101828.22;5064116;28;20213;-74
2022/10/11 10:11:03;;;;;;;4.47;1.20;;;;;;;12.43;100.00;101823.69;5067315;28;20687;-74
2022/10/11 10:13:43;;;;;;;3.30;0.87;;;;;;;12.44;100.00;101821.94;5054960;28;20298;-74
2022/10/11 10:16:20;;;;;;;3.83;0.80;;;;;;;12.31;100.00;101827.34;5055313;28;20195;-74
2022/10/11 10:18:53;;;;;;;3.63;0.90;;;;;;;12.34;100.00;101836.03;5054835;28;20282;-74
2022/10/11 10:21:29;;;;;;;3.23;0.97;;;;;;;12.31;100.00;101829.09;5059409;28;20203;-74
2022/10/11 10:23:58;;;;;;;2.43;0.77;;;;;;;12.38;100.00;101830.72;5059618;28;20601;-74
2022/10/11 10:26:26;;;;;;;5.50;1.13;;;;;;;12.47;100.00;101821.88;5059983;28;20221;-75
2022/10/11 10:28:59;;;;;;;2.77;0.70;;;;;;;12.63;100.00;101823.41;5058394;28;20195;-74
2022/10/11 10:31:32;;;;;;;4.97;0.90;;;;;;;12.71;100.00;101836.34;5063492;28;20557;-74
2022/10/11 10:34:01;;;;;;;1.40;0.70;;;;;;;12.79;100.00;101837.09;5068187;28;20596;-74
2022/10/11 10:36:32;;;;;;;1.93;0.87;;;;;;;12.92;100.00;101835.13;5060258;28;20686;-74
2022/10/11 10:39:05;;;;;;;1.20;0.70;;;;;;;13.05;100.00;101835.78;5062316;28;20213;-74
2022/10/11 10:41:32;;;;;;;5.20;0.90;;;;;;;13.24;100.00;101829.34;5051185;28;20203;-74
2022/10/11 10:44:00;;;;;;;3.37;0.90;;;;;;;13.27;100.00;101842.38;5061007;28;20802;-74
2022/10/11 10:46:43;;;;;;;4.40;1.00;;;;;;;13.27;100.00;101834.53;5059582;28;20218;-74
2022/10/11 10:49:14;;;;;;;2.70;0.70;;;;;;;13.50;100.00;101835.88;5056246;28;20198;-74
2022/10/11 10:51:56;;;;;;;1.73;0.80;;;;;;;13.67;100.00;101837.31;5055393;28;20647;-74
2022/10/11 10:54:35;;;;;;;3.30;0.70;;;;;;;13.81;100.00;101841.38;5058203;28;20510;-74
2022/10/11 10:57:04;;;;;;;3.50;0.87;;;;;;;13.97;100.00;101839.31;5059707;28;20202;-74
2022/10/11 10:59:53;;;;;;;2.23;1.03;;;;;;;13.85;100.00;101838.72;5064095;28;20674;-74
2022/10/11 11:02:23;;;;;;;2.97;0.80;;;;;;;13.70;100.00;101843.38;5056572;28;20199;-74
2022/10/11 11:05:04;;;;;;;4.87;0.60;;;;;;;13.63;100.00;101837.38;5055737;28;20226;-73
2022/10/11 11:07:40;;;;;;;6.47;1.20;;;;;;;13.66;100.00;101840.84;5053826;28;20611;-74
2022/10/11 11:10:13;;;;;;;2.87;0.87;;;;;;;13.77;100.00;101825.75;5049475;28;20201;-74
2022/10/11 11:12:45;;;;;;;3.20;0.77;;;;;;;13.93;100.00;101829.81;5059013;28;20246;-74
2022/10/11 11:15:16;;;;;;;2.73;0.90;;;;;;;14.00;100.00;101830.50;5063255;28;20229;-73
2022/10/11 11:18:04;;;;;;;2.00;0.90;;;;;;;13.97;100.00;101828.81;5052343;28;20205;-73
2022/10/11 11:20:47;;;;;;;4.50;0.63;;;;;;;14.14;100.00;101823.22;5056789;28;20711;-74
2022/10/11 11:23:22;;;;;;;1.33;0.70;;;;;;;14.27;98.48;101830.81;5052990;28;20499;-73
2022/10/11 11:25:55;;;;;;;3.60;0.83;;;;;;;13.94;95.71;101844.63;5051827;28;20730;-74
2022/10/11 11:28:36;;;;;;;2.50;0.67;;;;;;;13.77;99.98;101833.59;5059775;28;20202;-71
2022/10/11 11:31:11;;;;;;;3.57;0.90;;;;;;;13.45;100.00;101827.25;5060411;28;20577;-71
2022/10/11 11:33:47;;;;;;;1.30;0.63;;;;;;;13.24;100.00;101831.97;5051417;28;20481;-71